Time;durP1;ratioP1;P1;durP2;ratioP2;P2;SDS_P1;SDS_P2;PMS_P1;PMS_P2;Temp;Humidity;BMP_temperature;BMP_pressure;BME280_temperature;BME280_humidity;BME280_pressure;Samples;Min_cycle;Max_cycle;Signal;HPM_P1;HPM_P2
2023/07/30 00:01:48;;;;;;;5.87;4.63;;;14.90;99.90;;;;;;4809497;29;20274;-89
2023/07/30 00:04:14;;;;;;;8.20;5.10;;;14.90;99.90;;;;;;4793318;29;20186;-88
2023/07/30 00:06:40;;;;;;;6.93;5.40;;;14.80;99.90;;;;;;4809231;29;20671;-89
2023/07/30 00:09:08;;;;;;;7.77;5.17;;;14.80;99.90;;;;;;4809248;29;20190;-88
2023/07/30 00:11:34;;;;;;;6.50;4.80;;;14.80;99.90;;;;;;4793534;29;20583;-89
2023/07/30 00:14:00;;;;;;;9.57;5.27;;;14.80;99.90;;;;;;4793155;29;20435;-88
2023/07/30 00:16:26;;;;;;;10.30;5.90;;;14.90;99.90;;;;;;4809429;29;20273;-89
2023/07/30 00:18:52;;;;;;;8.00;5.00;;;14.80;99.90;;;;;;4809165;29;20652;-89
2023/07/30 00:21:17;;;;;;;7.00;5.43;;;14.80;99.90;;;;;;4809298;29;20433;-89
2023/07/30 00:23:43;;;;;;;8.60;5.10;;;14.80;99.90;;;;;;4808853;29;20264;-89
2023/07/30 00:26:08;;;;;;;10.17;5.13;;;14.80;99.90;;;;;;4793171;29;20254;-89
2023/07/30 00:28:34;;;;;;;9.23;5.47;;;14.70;99.90;;;;;;4809138;29;20658;-89
2023/07/30 00:31:00;;;;;;;7.63;5.03;;;14.70;99.90;;;;;;4809532;29;20667;-89
2023/07/30 00:33:25;;;;;;;8.10;5.30;;;14.70;99.90;;;;;;4809004;29;20184;-89
2023/07/30 00:35:54;;;;;;;7.20;5.23;;;14.60;99.90;;;;;;4808985;29;20189;-90
2023/07/30 00:38:20;;;;;;;5.80;4.87;;;14.60;99.90;;;;;;4808919;29;20534;-90
2023/07/30 00:40:45;;;;;;;9.50;4.83;;;14.60;99.90;;;;;;4792751;29;20431;-89
2023/07/30 00:43:11;;;;;;;9.67;4.97;;;14.60;99.90;;;;;;4792873;29;20432;-89
2023/07/30 00:45:39;;;;;;;10.70;5.20;;;14.50;99.90;;;;;;4808733;29;20278;-89
2023/07/30 00:48:05;;;;;;;11.70;5.30;;;14.60;99.90;;;;;;4792484;29;20221;-89
2023/07/30 00:50:32;;;;;;;5.70;4.47;;;14.50;99.90;;;;;;4792285;29;20416;-89
2023/07/30 00:52:58;;;;;;;7.50;4.57;;;14.40;99.90;;;;;;4792316;29;20190;-89
2023/07/30 00:55:24;;;;;;;7.60;5.50;;;14.40;99.90;;;;;;4808687;29;20761;-89
2023/07/30 00:57:51;;;;;;;8.43;5.67;;;14.40;99.90;;;;;;4792555;29;20424;-89
2023/07/30 01:00:17;;;;;;;5.93;4.90;;;14.40;99.90;;;;;;4808860;29;20435;-89
2023/07/30 01:02:43;;;;;;;7.23;5.10;;;14.40;99.90;;;;;;4808893;29;20434;-89
2023/07/30 01:05:09;;;;;;;8.87;4.93;;;14.40;99.90;;;;;;4795665;29;20432;-88
2023/07/30 01:07:35;;;;;;;10.10;5.73;;;14.40;99.90;;;;;;4792142;29;20479;-89
2023/07/30 01:10:01;;;;;;;8.53;5.10;;;14.40;99.90;;;;;;4808634;29;20310;-88
2023/07/30 01:12:30;;;;;;;10.47;5.47;;;14.60;99.90;;;;;;4808449;29;20182;-89
2023/07/30 01:14:56;;;;;;;9.17;5.33;;;14.60;99.90;;;;;;4791959;29;20486;-88
2023/07/30 01:17:22;;;;;;;7.27;5.37;;;14.70;99.90;;;;;;4808578;29;20427;-89
2023/07/30 01:19:54;;;;;;;5.93;5.20;;;14.80;99.90;;;;;;4808205;29;20562;-89
2023/07/30 01:22:20;;;;;;;15.40;5.40;;;14.90;99.90;;;;;;4792318;29;20424;-89
2023/07/30 01:24:46;;;;;;;7.90;6.53;;;15.00;99.90;;;;;;4807766;29;20837;-90
2023/07/30 01:27:19;;;;;;;6.30;5.27;;;15.00;99.90;;;;;;4791769;29;20479;-89
2023/07/30 01:30:18;;;;;;;9.73;5.57;;;15.10;99.90;;;;;;4808351;29;20429;-90
2023/07/30 01:32:48;;;;;;;8.23;5.40;;;15.10;99.90;;;;;;4794283;29;20946;-92
2023/07/30 01:35:14;;;;;;;6.40;4.47;;;15.20;99.90;;;;;;4808046;29;20527;-89
2023/07/30 01:37:43;;;;;;;7.70;5.40;;;15.20;99.90;;;;;;4808071;29;20564;-89
2023/07/30 01:40:10;;;;;;;6.90;5.63;;;15.20;99.90;;;;;;4807893;29;20419;-89
2023/07/30 01:42:36;;;;;;;8.40;4.90;;;15.20;99.90;;;;;;4808249;29;20430;-89
2023/07/30 01:45:02;;;;;;;7.27;4.53;;;15.30;99.90;;;;;;4807763;29;20436;-89
2023/07/30 01:47:27;;;;;;;6.27;4.80;;;15.30;99.90;;;;;;4791687;29;20482;-89
2023/07/30 01:49:53;;;;;;;8.83;4.80;;;15.40;99.90;;;;;;4807889;29;20210;-89
2023/07/30 01:52:19;;;;;;;9.13;5.17;;;15.40;99.90;;;;;;4791756;29;20544;-89
2023/07/30 01:54:44;;;;;;;8.97;4.83;;;15.40;99.90;;;;;;4807799;29;20311;-89
2023/07/30 01:57:10;;;;;;;7.63;4.33;;;15.50;99.90;;;;;;4807708;29;20243;-89
2023/07/30 01:59:35;;;;;;;6.87;4.80;;;15.60;99.90;;;;;;4807941;29;20272;-89
2023/07/30 02:02:01;;;;;;;9.03;4.53;;;15.50;99.90;;;;;;4807023;29;20186;-89
2023/07/30 02:04:27;;;;;;;7.63;4.83;;;15.60;99.90;;;;;;4807368;29;20691;-89
2023/07/30 02:06:52;;;;;;;11.43;5.30;;;15.60;99.90;;;;;;4807406;29;20250;-89
2023/07/30 02:09:18;;;;;;;4.37;3.97;;;15.60;99.90;;;;;;4791737;29;20194;-89
2023/07/30 02:11:44;;;;;;;12.57;4.90;;;15.60;99.90;;;;;;4807667;29;20186;-89
2023/07/30 02:14:10;;;;;;;8.63;4.83;;;15.60;99.90;;;;;;4791159;29;20194;-89
2023/07/30 02:16:35;;;;;;;10.73;5.67;;;15.70;99.90;;;;;;4807665;29;20204;-89
2023/07/30 02:19:01;;;;;;;8.23;4.30;;;15.60;99.90;;;;;;4807161;29;20802;-89
2023/07/30 02:21:27;;;;;;;12.10;4.87;;;15.60;99.90;;;;;;4791149;29;20724;-89
2023/07/30 02:23:52;;;;;;;8.03;4.47;;;15.60;99.90;;;;;;4807001;29;20283;-89
2023/07/30 02:26:18;;;;;;;8.43;4.70;;;15.70;99.90;;;;;;4807179;29;20209;-89
2023/07/30 02:28:43;;;;;;;6.90;4.47;;;15.60;99.90;;;;;;4791239;29;20198;-88
2023/07/30 02:31:09;;;;;;;7.47;4.73;;;15.70;99.90;;;;;;4791727;29;20210;-88
2023/07/30 02:33:34;;;;;;;6.83;4.50;;;15.70;99.90;;;;;;4808444;29;20182;-89
2023/07/30 02:36:00;;;;;;;9.83;4.20;;;15.70;99.90;;;;;;4807627;29;20222;-89
2023/07/30 02:38:26;;;;;;;15.00;4.83;;;15.70;99.90;;;;;;4776116;29;20220;-89
2023/07/30 02:40:51;;;;;;;5.27;4.40;;;15.70;99.90;;;;;;4807300;29;20186;-89
2023/07/30 02:43:17;;;;;;;7.50;4.13;;;15.60;99.90;;;;;;4790736;29;20193;-89
2023/07/30 02:45:43;;;;;;;12.27;4.50;;;15.60;99.90;;;;;;4790854;29;20220;-88
2023/07/30 02:48:08;;;;;;;11.37;5.20;;;15.70;99.90;;;;;;4806734;29;20205;-88
2023/07/30 02:50:34;;;;;;;13.07;5.80;;;15.70;99.90;;;;;;4790775;29;20194;-88
2023/07/30 02:52:59;;;;;;;9.97;5.03;;;15.80;99.90;;;;;;4806886;29;20273;-88
2023/07/30 02:55:25;;;;;;;9.40;5.30;;;15.80;99.90;;;;;;4775581;29;20198;-89
2023/07/30 02:57:51;;;;;;;13.07;5.33;;;15.90;99.90;;;;;;4806397;29;20274;-90
2023/07/30 03:00:16;;;;;;;10.40;5.33;;;15.90;99.90;;;;;;4790550;29;20212;-88
2023/07/30 03:02:42;;;;;;;12.40;5.10;;;16.00;99.90;;;;;;4806695;29;20186;-89
2023/07/30 03:05:08;;;;;;;9.63;4.63;;;16.00;99.90;;;;;;4806518;29;20265;-89
2023/07/30 03:07:35;;;;;;;9.97;5.00;;;16.00;99.90;;;;;;4790350;29;20225;-90
2023/07/30 03:10:00;;;;;;;8.90;5.67;;;16.00;99.90;;;;;;4806415;29;20432;-89
2023/07/30 03:12:26;;;;;;;20.17;5.60;;;16.00;99.90;;;;;;4806824;29;20431;-90
2023/07/30 03:14:51;;;;;;;12.03;5.10;;;16.00;99.90;;;;;;4806227;29;20284;-89
2023/07/30 03:17:17;;;;;;;9.57;4.67;;;16.00;99.90;;;;;;4790890;29;20194;-90
2023/07/30 03:19:43;;;;;;;7.70;5.40;;;15.90;99.90;;;;;;4806773;29;20239;-90
2023/07/30 03:22:09;;;;;;;5.90;4.27;;;16.00;99.90;;;;;;4806490;29;20198;-90
2023/07/30 03:24:34;;;;;;;12.13;5.30;;;16.00;99.90;;;;;;4806676;29;20933;-89
2023/07/30 03:27:01;;;;;;;8.20;4.70;;;16.00;99.90;;;;;;4806241;29;20272;-90
2023/07/30 03:29:27;;;;;;;15.27;5.40;;;15.90;99.90;;;;;;4806716;29;20853;-90
2023/07/30 03:31:52;;;;;;;15.77;5.37;;;16.00;99.90;;;;;;4806340;29;20255;-90
2023/07/30 03:34:18;;;;;;;25.73;5.70;;;16.00;99.90;;;;;;4790538;29;20200;-90
2023/07/30 03:36:43;;;;;;;8.63;4.63;;;16.00;99.90;;;;;;4806537;29;20190;-90
2023/07/30 03:39:09;;;;;;;15.10;4.97;;;15.90;99.90;;;;;;4775125;29;20285;-90
2023/07/30 03:41:35;;;;;;;10.23;4.00;;;15.90;99.90;;;;;;4790239;29;20217;-90
2023/07/30 03:44:00;;;;;;;13.90;4.80;;;15.90;99.90;;;;;;4806102;29;20208;-90
2023/07/30 03:46:26;;;;;;;14.50;4.30;;;15.80;99.90;;;;;;4806398;29;20483;-90
2023/07/30 03:48:52;;;;;;;8.53;4.20;;;15.80;99.90;;;;;;4775267;29;20280;-90
2023/07/30 03:51:17;;;;;;;6.93;4.20;;;15.80;99.90;;;;;;4790403;29;20182;-90
2023/07/30 03:53:43;;;;;;;7.13;5.00;;;15.70;99.90;;;;;;4806409;29;20193;-90
2023/07/30 03:56:09;;;;;;;12.13;4.17;;;15.70;99.90;;;;;;4790184;29;20227;-90
2023/07/30 03:58:35;;;;;;;9.97;4.83;;;15.70;99.90;;;;;;4806540;29;20189;-90
2023/07/30 04:01:01;;;;;;;12.03;4.30;;;15.70;99.90;;;;;;4790065;29;20190;-90
2023/07/30 04:03:27;;;;;;;12.20;4.83;;;15.60;99.90;;;;;;4806303;29;20990;-90
2023/07/30 04:05:52;;;;;;;8.17;4.40;;;15.60;99.90;;;;;;4790100;29;20518;-90
2023/07/30 04:08:18;;;;;;;9.70;3.80;;;15.60;99.90;;;;;;4805973;29;20191;-90
2023/07/30 04:10:44;;;;;;;7.53;4.07;;;15.60;99.90;;;;;;4790346;29;20213;-90
2023/07/30 04:13:09;;;;;;;7.37;3.87;;;15.60;99.90;;;;;;4805698;29;20187;-90
2023/07/30 04:15:35;;;;;;;12.33;4.73;;;15.60;99.90;;;;;;4789807;29;20229;-90
2023/07/30 04:18:00;;;;;;;11.20;4.13;;;15.60;99.90;;;;;;4806406;29;20194;-90
2023/07/30 04:20:26;;;;;;;9.40;4.87;;;15.60;99.90;;;;;;4806307;29;20187;-90
2023/07/30 04:22:52;;;;;;;16.20;4.10;;;15.60;99.90;;;;;;4790131;29;20285;-90
2023/07/30 04:25:18;;;;;;;11.10;3.67;;;15.70;99.90;;;;;;4804892;29;20241;-90
2023/07/30 04:27:43;;;;;;;11.90;4.33;;;15.60;99.90;;;;;;4827043;29;20228;-90
2023/07/30 04:30:09;;;;;;;7.67;3.90;;;15.70;99.90;;;;;;4827211;29;20410;-90
2023/07/30 04:32:35;;;;;;;5.90;3.40;;;15.70;99.90;;;;;;4796530;29;20198;-90
2023/07/30 04:35:02;;;;;;;8.20;3.70;;;15.70;99.90;;;;;;4830465;29;20415;-90
2023/07/30 04:37:28;;;;;;;8.40;3.40;;;15.80;99.90;;;;;;4830038;29;20725;-90
2023/07/30 04:39:54;;;;;;;6.87;3.23;;;15.80;99.90;;;;;;4827609;29;20497;-90
2023/07/30 04:42:19;;;;;;;7.00;3.43;;;15.80;99.90;;;;;;4811347;29;20322;-90
2023/07/30 04:44:45;;;;;;;8.23;3.47;;;15.70;99.90;;;;;;4796184;29;20277;-90
2023/07/30 04:47:10;;;;;;;7.23;2.90;;;15.70;99.90;;;;;;4810504;29;20225;-90
2023/07/30 04:49:39;;;;;;;10.60;2.77;;;15.70;99.90;;;;;;4827308;29;20593;-90
2023/07/30 04:52:04;;;;;;;7.00;3.10;;;15.70;99.90;;;;;;4826967;29;20186;-90
2023/07/30 04:54:30;;;;;;;7.93;3.03;;;15.70;99.90;;;;;;4810800;29;20996;-90
2023/07/30 04:56:56;;;;;;;10.07;2.70;;;15.70;99.90;;;;;;4826642;29;20186;-90
2023/07/30 04:59:21;;;;;;;8.07;2.60;;;15.70;99.90;;;;;;4827302;29;20674;-90
2023/07/30 05:01:47;;;;;;;8.83;2.30;;;15.80;99.90;;;;;;4810569;29;20192;-90
2023/07/30 05:04:12;;;;;;;5.93;2.63;;;15.80;99.90;;;;;;4826709;29;20576;-90
2023/07/30 05:06:38;;;;;;;8.27;2.70;;;15.80;99.90;;;;;;4810871;29;20270;-89
2023/07/30 05:09:03;;;;;;;7.07;2.50;;;15.80;99.90;;;;;;4810237;29;20202;-89
2023/07/30 05:11:29;;;;;;;5.67;2.70;;;15.80;99.90;;;;;;4810590;29;20216;-89
2023/07/30 05:13:55;;;;;;;9.63;2.80;;;15.80;99.90;;;;;;4826868;29;20261;-89
2023/07/30 05:16:20;;;;;;;4.83;2.47;;;15.80;99.90;;;;;;4810082;29;20189;-90
2023/07/30 05:18:47;;;;;;;7.17;2.43;;;15.80;99.90;;;;;;4810540;29;20193;-90
2023/07/30 05:21:12;;;;;;;3.70;1.77;;;15.70;99.90;;;;;;4826270;29;20185;-90
2023/07/30 05:23:38;;;;;;;4.50;2.07;;;15.80;99.90;;;;;;4806821;29;21009;-91
2023/07/30 05:26:04;;;;;;;3.20;1.77;;;15.80;99.90;;;;;;4807862;29;20229;-90
2023/07/30 05:28:29;;;;;;;5.33;2.03;;;15.80;99.90;;;;;;4807848;29;20205;-89
2023/07/30 05:30:55;;;;;;;10.07;3.00;;;15.80;99.90;;;;;;4808044;29;20550;-89
2023/07/30 05:33:21;;;;;;;5.40;2.00;;;15.80;99.90;;;;;;4791800;29;20191;-90
2023/07/30 05:35:47;;;;;;;2.67;1.60;;;15.80;99.90;;;;;;4808466;29;20262;-90
2023/07/30 05:38:13;;;;;;;4.50;2.03;;;15.80;99.90;;;;;;4791514;29;20427;-90
2023/07/30 05:40:39;;;;;;;7.10;2.47;;;15.80;99.90;;;;;;4808122;29;20420;-90
2023/07/30 05:43:04;;;;;;;4.97;1.80;;;15.80;99.90;;;;;;4791741;29;20222;-90
2023/07/30 05:45:30;;;;;;;10.47;2.60;;;15.90;99.90;;;;;;4792148;29;20277;-90
2023/07/30 05:47:55;;;;;;;5.67;2.43;;;15.90;99.90;;;;;;4808097;29;20194;-90
2023/07/30 05:50:21;;;;;;;5.10;2.50;;;15.90;99.90;;;;;;4796214;29;20190;-90
2023/07/30 05:52:47;;;;;;;6.87;2.13;;;15.90;99.90;;;;;;4808251;29;20620;-90
2023/07/30 05:55:12;;;;;;;12.80;2.70;;;16.10;99.90;;;;;;4807617;29;20190;-90
2023/07/30 05:57:38;;;;;;;7.37;2.53;;;16.00;99.90;;;;;;4792046;29;20222;-90
2023/07/30 06:00:04;;;;;;;4.90;2.50;;;16.10;99.90;;;;;;4791708;29;20251;-90
2023/07/30 06:02:30;;;;;;;9.20;5.33;;;16.20;99.90;;;;;;4807897;29;20261;-91
2023/07/30 06:04:55;;;;;;;6.43;2.33;;;16.20;99.90;;;;;;4791968;29;20479;-91
2023/07/30 06:07:21;;;;;;;4.30;1.80;;;16.30;99.90;;;;;;4807377;29;20687;-91
2023/07/30 06:09:46;;;;;;;7.93;2.70;;;16.40;99.90;;;;;;4791621;29;20561;-90
2023/07/30 06:12:12;;;;;;;3.27;2.00;;;16.40;99.90;;;;;;4791545;29;20197;-90
2023/07/30 06:14:38;;;;;;;3.33;1.93;;;16.40;99.90;;;;;;4807823;29;20182;-90
2023/07/30 06:17:04;;;;;;;5.30;2.33;;;16.50;99.90;;;;;;4807660;29;20201;-90
2023/07/30 06:19:29;;;;;;;6.00;1.60;;;16.50;99.90;;;;;;4807651;29;20654;-90
2023/07/30 06:21:55;;;;;;;5.63;2.00;;;16.50;99.90;;;;;;4807779;29;20639;-90
2023/07/30 06:24:20;;;;;;;5.20;1.50;;;16.60;99.90;;;;;;4807886;29;20238;-90
2023/07/30 06:26:46;;;;;;;7.40;2.57;;;16.50;99.90;;;;;;4812633;29;20218;-90
2023/07/30 06:29:12;;;;;;;3.30;1.60;;;16.60;99.90;;;;;;4825858;29;20182;-91
2023/07/30 06:31:38;;;;;;;4.20;1.43;;;16.60;99.90;;;;;;4810677;29;20636;-90
2023/07/30 06:34:03;;;;;;;7.83;1.87;;;16.50;99.90;;;;;;4808256;29;20592;-90
2023/07/30 06:36:29;;;;;;;2.50;1.50;;;16.50;99.90;;;;;;4793366;29;20492;-90
2023/07/30 06:38:55;;;;;;;5.00;2.37;;;16.50;99.90;;;;;;4794648;29;20651;-90
2023/07/30 06:41:21;;;;;;;3.90;1.50;;;16.40;99.90;;;;;;4808206;29;20182;-90
2023/07/30 06:43:47;;;;;;;6.63;1.87;;;16.40;99.90;;;;;;4807777;29;20190;-92
2023/07/30 06:46:12;;;;;;;6.10;1.73;;;16.40;99.90;;;;;;4791073;29;20517;-91
2023/07/30 06:48:38;;;;;;;3.93;1.70;;;16.40;99.90;;;;;;4807695;29;20194;-92
2023/07/30 06:51:07;;;;;;;5.23;1.30;;;16.40;99.90;;;;;;4791555;29;20264;-92
2023/07/30 06:53:33;;;;;;;4.53;1.77;;;16.40;99.90;;;;;;4807976;29;20193;-91
2023/07/30 06:55:58;;;;;;;4.60;2.20;;;16.50;99.90;;;;;;4807708;29;20416;-91
2023/07/30 06:58:24;;;;;;;5.30;1.57;;;16.60;99.90;;;;;;4807542;29;20449;-91
2023/07/30 07:00:50;;;;;;;5.80;1.30;;;16.60;99.90;;;;;;4791442;29;20186;-91
2023/07/30 07:03:15;;;;;;;2.83;1.37;;;16.60;99.90;;;;;;4807202;29;20183;-91
2023/07/30 07:05:41;;;;;;;5.53;1.53;;;16.70;99.90;;;;;;4791293;29;20202;-91
2023/07/30 07:08:06;;;;;;;10.30;2.30;;;16.80;99.90;;;;;;4807360;29;20243;-92
2023/07/30 07:10:32;;;;;;;3.60;1.50;;;16.90;99.90;;;;;;4807298;29;20236;-91
2023/07/30 07:12:58;;;;;;;6.13;2.30;;;16.80;99.90;;;;;;4807824;29;20636;-90
2023/07/30 07:15:23;;;;;;;7.97;2.10;;;16.90;99.90;;;;;;4807121;29;20205;-90
2023/07/30 07:17:49;;;;;;;6.03;1.90;;;16.90;99.90;;;;;;4807302;29;20190;-91
2023/07/30 07:20:15;;;;;;;5.77;2.17;;;16.90;99.90;;;;;;4807941;29;20213;-88
2023/07/30 07:22:40;;;;;;;6.40;2.20;;;16.90;99.90;;;;;;4810199;29;20190;-91
2023/07/30 07:25:06;;;;;;;5.57;2.30;;;17.00;99.90;;;;;;4809915;29;20323;-91
2023/07/30 07:27:32;;;;;;;8.47;2.20;;;17.10;99.90;;;;;;4807366;29;20241;-91
2023/07/30 07:29:57;;;;;;;8.43;2.17;;;17.10;99.90;;;;;;4807489;29;20439;-92
2023/07/30 07:32:23;;;;;;;11.23;2.00;;;17.20;99.90;;;;;;4807157;29;20296;-91
2023/07/30 07:34:49;;;;;;;8.53;2.23;;;17.20;99.90;;;;;;4807233;29;20190;-91
2023/07/30 07:37:18;;;;;;;8.30;2.40;;;17.20;99.90;;;;;;4807014;29;20225;-91
2023/07/30 07:39:44;;;;;;;9.43;2.20;;;17.20;99.90;;;;;;4790912;29;20451;-91
2023/07/30 07:42:10;;;;;;;8.10;2.37;;;17.20;99.90;;;;;;4807198;29;20462;-90
2023/07/30 07:44:36;;;;;;;7.83;2.20;;;17.20;99.90;;;;;;4806772;29;20784;-92
2023/07/30 07:47:02;;;;;;;7.67;2.03;;;17.20;99.90;;;;;;4806950;29;20226;-90
2023/07/30 07:49:28;;;;;;;8.80;2.73;;;17.10;99.90;;;;;;4807485;29;20554;-90
2023/07/30 07:51:54;;;;;;;5.57;2.30;;;17.10;99.90;;;;;;4807332;29;20409;-91
2023/07/30 07:54:20;;;;;;;4.80;2.93;;;17.00;99.90;;;;;;4807540;29;20633;-91
2023/07/30 07:56:45;;;;;;;7.07;2.40;;;17.00;99.90;;;;;;4791096;29;20280;-91
2023/07/30 07:59:11;;;;;;;9.73;2.80;;;17.00;99.90;;;;;;4806780;29;20198;-91
2023/07/30 08:01:36;;;;;;;7.63;2.37;;;17.00;99.90;;;;;;4809181;29;20331;-92
2023/07/30 08:04:02;;;;;;;8.83;2.30;;;17.00;99.90;;;;;;4811123;29;20656;-92
2023/07/30 08:06:29;;;;;;;12.70;2.77;;;17.10;99.90;;;;;;4810791;29;20278;-92
2023/07/30 08:08:55;;;;;;;7.13;2.33;;;17.20;99.90;;;;;;4810738;29;20423;-90
2023/07/30 08:11:20;;;;;;;11.43;3.47;;;17.20;99.90;;;;;;4810248;29;20427;-91
2023/07/30 08:13:46;;;;;;;6.90;2.40;;;17.10;99.90;;;;;;4810067;29;20243;-91
2023/07/30 08:16:12;;;;;;;5.67;1.93;;;16.90;99.90;;;;;;4793834;29;20249;-90
2023/07/30 08:18:37;;;;;;;7.37;2.47;;;16.90;99.90;;;;;;4811498;29;20235;-91
2023/07/30 08:21:03;;;;;;;7.83;2.97;;;16.90;99.90;;;;;;4810970;29;20196;-91
2023/07/30 08:23:29;;;;;;;10.50;2.80;;;16.90;99.90;;;;;;4810234;29;20233;-91
2023/07/30 08:25:54;;;;;;;12.80;3.47;;;16.90;99.90;;;;;;4810720;29;20226;-90
2023/07/30 08:28:20;;;;;;;8.17;3.00;;;16.90;99.90;;;;;;4810585;29;20178;-91
2023/07/30 08:30:46;;;;;;;7.87;2.73;;;17.00;99.90;;;;;;4811823;29;20178;-91
2023/07/30 08:33:12;;;;;;;10.57;3.10;;;17.20;99.90;;;;;;4813773;29;20182;-90
2023/07/30 08:35:37;;;;;;;5.00;2.77;;;17.30;99.90;;;;;;4811495;29;20468;-90
2023/07/30 08:38:03;;;;;;;7.07;2.57;;;17.50;99.90;;;;;;4779026;29;20435;-92
2023/07/30 08:40:29;;;;;;;11.13;2.73;;;17.70;99.90;;;;;;4809792;29;20603;-91
2023/07/30 08:42:55;;;;;;;7.00;2.23;;;18.00;99.90;;;;;;4810606;29;20473;-91
2023/07/30 08:45:21;;;;;;;11.80;2.47;;;18.50;99.90;;;;;;4810104;29;20194;-92
2023/07/30 08:47:47;;;;;;;10.20;2.13;;;18.70;99.90;;;;;;4809396;29;20321;-87
2023/07/30 08:50:13;;;;;;;17.07;3.40;;;18.50;99.90;;;;;;4810388;29;20265;-89
2023/07/30 08:52:39;;;;;;;9.43;2.27;;;18.40;99.90;;;;;;4810223;29;20419;-91
2023/07/30 08:55:06;;;;;;;5.70;2.20;;;18.40;99.90;;;;;;4793758;29;20420;-89
2023/07/30 08:57:32;;;;;;;9.17;3.33;;;18.40;99.90;;;;;;4809374;29;21016;-89
2023/07/30 09:00:10;;;;;;;7.50;1.80;;;18.60;99.90;;;;;;4809813;29;20481;-92
2023/07/30 09:03:03;;;;;;;6.93;2.53;;;18.70;99.90;;;;;;4809770;29;20411;-89
2023/07/30 09:05:30;;;;;;;10.03;2.30;;;18.60;99.90;;;;;;4809332;29;20390;-89
2023/07/30 09:07:56;;;;;;;8.13;2.20;;;18.90;99.90;;;;;;4809630;29;20844;-91
2023/07/30 09:10:22;;;;;;;7.33;2.37;;;18.90;99.90;;;;;;4808987;29;20420;-91
2023/07/30 09:12:57;;;;;;;9.47;2.53;;;18.80;99.90;;;;;;4809540;29;20427;-92
2023/07/30 09:15:34;;;;;;;5.70;1.83;;;18.60;99.90;;;;;;4809557;29;20917;-92
2023/07/30 09:18:00;;;;;;;8.70;2.57;;;18.70;99.90;;;;;;4793238;29;20913;-89
2023/07/30 09:20:27;;;;;;;8.33;2.20;;;18.60;99.90;;;;;;4809497;29;20419;-90
2023/07/30 09:22:55;;;;;;;8.27;2.03;;;18.30;99.90;;;;;;4793879;29;20447;-90
2023/07/30 09:25:21;;;;;;;12.37;2.37;;;18.40;99.90;;;;;;4806369;29;20471;-91
2023/07/30 09:27:53;;;;;;;8.97;2.63;;;18.30;99.90;;;;;;4809103;29;21121;-90
2023/07/30 09:30:26;;;;;;;7.03;2.37;;;18.40;99.90;;;;;;4810009;29;20187;-91
2023/07/30 09:32:53;;;;;;;7.60;2.07;;;19.10;99.90;;;;;;4809710;29;20451;-90
2023/07/30 09:35:19;;;;;;;8.33;2.40;;;19.50;99.90;;;;;;4809463;29;20827;-91
2023/07/30 09:37:45;;;;;;;6.80;2.00;;;19.50;99.90;;;;;;4810198;29;20496;-88
2023/07/30 09:40:13;;;;;;;8.30;1.70;;;19.70;99.90;;;;;;4812074;29;20942;-91
2023/07/30 09:42:42;;;;;;;6.97;1.97;;;20.20;99.90;;;;;;4811550;29;20401;-91
2023/07/30 09:45:23;;;;;;;7.07;2.17;;;20.40;99.90;;;;;;4809151;29;20956;-93
2023/07/30 09:47:50;;;;;;;4.67;1.97;;;20.60;99.90;;;;;;4808512;29;20809;-92
2023/07/30 09:50:16;;;;;;;10.17;2.40;;;21.10;99.90;;;;;;4808791;29;20838;-84
2023/07/30 09:52:43;;;;;;;6.53;1.93;;;21.70;99.90;;;;;;4807169;29;20402;-86
2023/07/30 09:55:09;;;;;;;12.17;2.50;;;21.50;99.90;;;;;;4808549;29;20178;-88
2023/07/30 09:57:36;;;;;;;6.93;1.50;;;21.70;99.90;;;;;;4806764;29;20501;-89
2023/07/30 10:00:03;;;;;;;6.43;2.40;;;21.50;99.90;;;;;;4808723;29;20763;-87
2023/07/30 10:02:33;;;;;;;9.23;2.23;;;21.50;99.90;;;;;;4808037;29;20427;-87
2023/07/30 10:05:00;;;;;;;4.60;1.63;;;21.40;99.90;;;;;;4808064;29;20445;-87
2023/07/30 10:07:28;;;;;;;7.10;2.60;;;21.00;99.90;;;;;;4807242;29;20472;-89
2023/07/30 10:09:58;;;;;;;4.50;1.77;;;20.30;99.90;;;;;;4808086;29;20395;-89
2023/07/30 10:12:30;;;;;;;9.20;2.73;;;20.00;99.90;;;;;;4807665;29;20430;-89
2023/07/30 10:14:56;;;;;;;8.30;1.97;;;20.10;99.90;;;;;;4807222;29;20463;-88
2023/07/30 10:17:22;;;;;;;6.40;1.80;;;20.20;99.90;;;;;;4807762;29;20843;-89
2023/07/30 10:19:49;;;;;;;5.80;2.27;;;20.80;99.90;;;;;;4807973;29;20271;-90
2023/07/30 10:22:18;;;;;;;5.23;1.90;;;20.80;99.90;;;;;;4808318;29;20458;-91
2023/07/30 10:24:58;;;;;;;9.27;2.10;;;20.70;99.90;;;;;;4807525;29;20498;-90
2023/07/30 10:27:25;;;;;;;7.70;1.73;;;21.10;99.90;;;;;;4791482;29;20487;-91
2023/07/30 10:30:08;;;;;;;6.30;2.13;;;21.10;99.90;;;;;;4808018;29;20457;-89
2023/07/30 10:32:43;;;;;;;6.10;1.80;;;21.00;99.90;;;;;;4791917;29;20463;-87
2023/07/30 10:35:08;;;;;;;4.60;2.00;;;20.80;99.90;;;;;;4808881;29;20761;-90
2023/07/30 10:37:34;;;;;;;9.40;1.90;;;21.10;99.90;;;;;;4793449;29;20402;-89
2023/07/30 10:40:00;;;;;;;4.60;1.50;;;20.80;99.90;;;;;;4807706;29;20394;-86
2023/07/30 10:42:35;;;;;;;8.27;1.60;;;20.80;99.90;;;;;;4807106;29;20427;-89
2023/07/30 10:45:00;;;;;;;4.63;1.80;;;21.20;99.90;;;;;;4807799;29;20198;-85
2023/07/30 10:47:29;;;;;;;4.50;2.30;;;21.30;99.90;;;;;;4807498;29;20806;-87
2023/07/30 10:50:02;;;;;;;4.43;1.60;;;21.40;99.90;;;;;;4807677;29;20239;-88
2023/07/30 10:52:27;;;;;;;6.40;1.70;;;21.80;99.90;;;;;;4807507;29;20427;-89
2023/07/30 10:55:00;;;;;;;3.00;1.33;;;22.00;99.90;;;;;;4807402;29;20428;-92
2023/07/30 10:57:31;;;;;;;3.67;1.27;;;21.80;99.90;;;;;;4808210;29;20184;-91
2023/07/30 10:59:59;;;;;;;6.10;1.43;;;21.80;99.90;;;;;;4808302;29;20421;-90
2023/07/30 11:02:24;;;;;;;7.10;1.50;;;21.50;99.90;;;;;;4792870;29;20436;-89
2023/07/30 11:04:51;;;;;;;4.20;1.30;;;21.10;99.90;;;;;;4808507;29;20485;-89
2023/07/30 11:07:19;;;;;;;10.70;1.70;;;21.10;99.90;;;;;;4809912;29;20225;-94
2023/07/30 11:09:44;;;;;;;3.60;1.80;;;21.20;99.90;;;;;;4809526;29;20488;-92
2023/07/30 11:12:10;;;;;;;4.20;1.53;;;21.30;99.90;;;;;;4808265;29;20972;-83
2023/07/30 11:14:36;;;;;;;5.60;1.67;;;21.50;99.90;;;;;;4806917;29;20263;-89
2023/07/30 11:17:02;;;;;;;3.17;1.20;;;21.50;99.90;;;;;;4809478;29;20203;-94
2023/07/30 11:19:29;;;;;;;2.77;1.17;;;21.40;99.90;;;;;;4792828;29;20194;-92
2023/07/30 11:21:57;;;;;;;3.07;1.40;;;21.50;99.90;;;;;;4795071;29;20436;-94
2023/07/30 11:24:36;;;;;;;3.73;1.23;;;21.60;99.90;;;;;;4798657;29;20509;-95
2023/07/30 11:27:03;;;;;;;5.00;1.43;;;21.70;99.90;;;;;;4813619;29;20465;-92
2023/07/30 11:29:28;;;;;;;6.67;1.67;;;21.70;99.90;;;;;;4809038;29;20418;-93
2023/07/30 11:32:02;;;;;;;4.03;1.50;;;21.70;99.90;;;;;;4809118;29;20829;-90
2023/07/30 11:34:29;;;;;;;5.83;1.50;;;21.70;99.90;;;;;;4807285;29;20212;-83
2023/07/30 11:36:55;;;;;;;5.67;1.40;;;21.60;99.90;;;;;;4811865;29;20420;-91
2023/07/30 11:39:23;;;;;;;6.20;1.87;;;21.70;99.90;;;;;;4810247;29;20410;-90
2023/07/30 11:41:49;;;;;;;8.83;1.73;;;21.80;99.90;;;;;;4811347;29;20395;-93
2023/07/30 11:44:35;;;;;;;3.80;1.80;;;21.50;99.90;;;;;;4809893;29;20391;-85
2023/07/30 11:47:01;;;;;;;3.47;1.80;;;21.20;99.90;;;;;;4811926;29;20214;-86
2023/07/30 11:49:26;;;;;;;4.10;1.37;;;21.00;99.90;;;;;;4811390;29;20480;-90
2023/07/30 11:52:08;;;;;;;4.93;1.60;;;20.90;99.90;;;;;;4809644;29;20198;-83
2023/07/30 11:54:33;;;;;;;5.27;1.53;;;20.90;99.90;;;;;;4810670;29;20542;-88
2023/07/30 11:57:00;;;;;;;6.23;1.57;;;20.90;99.90;;;;;;4811215;29;20446;-86
2023/07/30 11:59:26;;;;;;;4.20;1.47;;;20.80;99.90;;;;;;4811273;29;20419;-89
2023/07/30 12:01:51;;;;;;;4.70;2.33;;;20.60;99.90;;;;;;4812777;29;20500;-91
2023/07/30 12:04:18;;;;;;;5.60;2.00;;;20.50;99.90;;;;;;4812502;29;20430;-91
2023/07/30 12:06:53;;;;;;;16.40;2.93;;;20.70;99.90;;;;;;4813572;29;20301;-91
2023/07/30 12:09:25;;;;;;;3.47;1.67;;;21.00;99.90;;;;;;4814229;29;20486;-87
2023/07/30 12:11:53;;;;;;;10.07;2.10;;;20.90;99.90;;;;;;4813551;29;20416;-92
2023/07/30 12:14:21;;;;;;;3.60;1.00;;;20.70;99.90;;;;;;4810358;29;20398;-94
2023/07/30 12:16:47;;;;;;;4.30;2.13;;;20.60;99.90;;;;;;4811545;29;20490;-88
2023/07/30 12:19:13;;;;;;;4.33;1.67;;;20.50;99.90;;;;;;4812386;29;20432;-95
2023/07/30 12:21:39;;;;;;;3.93;1.50;;;20.60;99.90;;;;;;4811585;29;20489;-91
2023/07/30 12:24:04;;;;;;;4.10;1.83;;;20.90;99.90;;;;;;4811941;29;20237;-91
2023/07/30 12:26:30;;;;;;;5.87;1.77;;;21.50;99.90;;;;;;4809554;29;20224;-85
2023/07/30 12:28:56;;;;;;;3.77;1.47;;;21.80;99.90;;;;;;4792765;29;20238;-92
2023/07/30 12:31:21;;;;;;;2.53;1.60;;;21.50;99.90;;;;;;4810060;29;20415;-92
2023/07/30 12:33:47;;;;;;;3.50;1.60;;;21.50;99.90;;;;;;4793202;29;20190;-90
2023/07/30 12:36:13;;;;;;;5.13;1.70;;;21.70;99.90;;;;;;4809548;29;20194;-87
2023/07/30 12:38:39;;;;;;;4.07;1.60;;;22.10;99.90;;;;;;4809752;29;20293;-92
2023/07/30 12:41:05;;;;;;;4.23;1.67;;;21.90;99.90;;;;;;4811148;29;20199;-90
2023/07/30 12:43:30;;;;;;;11.30;2.33;;;21.60;99.90;;;;;;4809755;29;20431;-88